Observation data for Friona on 07/12/2020      Previous  Date  Next       Current Mesonet Observations  Soil Data  Daily Summary Page  Observations in Plain Language
KFAS 120500Z 09012KT 28/09 A301 RMK A01 T02810090  RH  031%=      5-min Rain = 0
KFAS 120505Z 09011KT 28/09 A301 RMK A01 T02820090  RH  031%=      5-min Rain = 0
KFAS 120510Z 07013G18KT 28/09 A3011 RMK A01 T02840088  RH  030%=      5-min Rain = 0
KFAS 120515Z 06019G27KT 29/09 A3011 RMK A01 T02880087  RH  029%=      5-min Rain = 0
KFAS 120520Z 05021G26KT 28/11 A3012 RMK A01 T02800114  RH  037%=      5-min Rain = 0
KFAS 120525Z 05024G33KT 27/13 A3012 RMK A01 T02650131  RH  045%=      5-min Rain = 0
KFAS 120530Z 06022G27KT 26/14 A3012 RMK A01 T02570142  RH  051%=      5-min Rain = 0
KFAS 120535Z 07021G30KT 25/14 A3012 RMK A01 T02530144  RH  053%=      5-min Rain = 0
KFAS 120540Z 06020G26KT 25/14 A301 RMK A01 T02540138  RH  051%=      5-min Rain = 0
KFAS 120545Z 07016G21KT 26/14 A301 RMK A01 T02570135  RH  049%=      5-min Rain = 0
KFAS 120550Z 09015KT 26/14 A301 RMK A01 T02570136  RH  049%=      5-min Rain = 0
KFAS 120555Z 09015G21KT 26/14 A3009 RMK A01 T02550136  RH  050%=      5-min Rain = 0
KFAS 120600Z 09014G20KT 26/13 A3009 RMK A01 T02580129  RH  047%=      5-min Rain = 0
KFAS 120605Z 09012KT 26/13 A3009 RMK A01 T02590127  RH  046%=      5-min Rain = 0
KFAS 120610Z 10009G14KT 26/13 A3009 RMK A01 T02580128  RH  046%=      5-min Rain = 0
KFAS 120615Z 11007KT 26/13 A3009 RMK A01 T02550129  RH  047%=      5-min Rain = 0
KFAS 120620Z 11007KT 25/13 A3009 RMK A01 T02520131  RH  049%=      5-min Rain = 0
KFAS 120625Z 11007KT 25/13 A3009 RMK A01 T02480132  RH  051%=      5-min Rain = 0
KFAS 120630Z 11006KT 25/13 A3009 RMK A01 T02460133  RH  051%=      5-min Rain = 0
KFAS 120635Z 13005KT 24/13 A3009 RMK A01 T02440133  RH  052%=      5-min Rain = 0
KFAS 120640Z 12005KT 24/13 A3009 RMK A01 T02430134  RH  053%=      5-min Rain = 0
KFAS 120645Z 15004KT 24/13 A3009 RMK A01 T02410134  RH  053%=      5-min Rain = 0
KFAS 120650Z 16004KT 24/13 A3009 RMK A01 T02410130  RH  052%=      5-min Rain = 0
KFAS 120655Z 16005KT 24/13 A3009 RMK A01 T02420129  RH  051%=      5-min Rain = 0
KFAS 120700Z 09004KT 24/13 A301 RMK A01 T02430132  RH  052%=      5-min Rain = 0
KFAS 120705Z 13005KT 24/14 A301 RMK A01 T02410140  RH  055%=      5-min Rain = 0
KFAS 120710Z 10005KT 24/14 A301 RMK A01 T02380141  RH  057%=      5-min Rain = 0
KFAS 120715Z 10001KT 24/14 A301 RMK A01 T02370140  RH  057%=      5-min Rain = 0
KFAS 120720Z 14003KT 23/14 A301 RMK A01 T02340141  RH  058%=      5-min Rain = 0
KFAS 120725Z 15004KT 23/14 A301 RMK A01 T02340144  RH  059%=      5-min Rain = 0
KFAS 120730Z 15006KT 24/14 A301 RMK A01 T02350140  RH  058%=      5-min Rain = 0
KFAS 120735Z 13005KT 24/14 A301 RMK A01 T02350140  RH  058%=      5-min Rain = 0
KFAS 120740Z 14004KT 24/14 A301 RMK A01 T02360143  RH  058%=      5-min Rain = 0
KFAS 120745Z 13004KT 24/14 A301 RMK A01 T02370137  RH  056%=      5-min Rain = 0
KFAS 120750Z 18004KT 24/14 A301 RMK A01 T02390135  RH  054%=      5-min Rain = 0
KFAS 120755Z 18003KT 24/13 A301 RMK A01 T02390130  RH  053%=      5-min Rain = 0
KFAS 120800Z 18004KT 24/13 A301 RMK A01 T02390132  RH  053%=      5-min Rain = 0
KFAS 120805Z 20004KT 24/13 A301 RMK A01 T02360130  RH  054%=      5-min Rain = 0
KFAS 120810Z 21002KT 23/13 A301 RMK A01 T02340128  RH  053%=      5-min Rain = 0
KFAS 120815Z 22003KT 23/13 A301 RMK A01 T02300129  RH  055%=      5-min Rain = 0
KFAS 120820Z 21003KT 23/13 A301 RMK A01 T02300130  RH  055%=      5-min Rain = 0
KFAS 120825Z 21006KT 23/13 A301 RMK A01 T02300130  RH  055%=      5-min Rain = 0
KFAS 120830Z 21007KT 23/13 A3011 RMK A01 T02280127  RH  055%=      5-min Rain = 0
KFAS 120835Z 21004KT 23/12 A3011 RMK A01 T02290121  RH  052%=      5-min Rain = 0
KFAS 120840Z 22005KT 23/12 A3011 RMK A01 T02310119  RH  051%=      5-min Rain = 0
KFAS 120845Z 21003KT 24/12 A3011 RMK A01 T02350116  RH  049%=      5-min Rain = 0
KFAS 120850Z 21005KT 24/12 A3011 RMK A01 T02380115  RH  048%=      5-min Rain = 0
KFAS 120855Z 21006KT 24/12 A3011 RMK A01 T02380115  RH  048%=      5-min Rain = 0
KFAS 120900Z 20004KT 24/11 A3011 RMK A01 T02370114  RH  048%=      5-min Rain = 0
KFAS 120905Z 20003KT 24/12 A3011 RMK A01 T02350116  RH  049%=      5-min Rain = 0
KFAS 120910Z 23004KT 24/12 A3011 RMK A01 T02370115  RH  048%=      5-min Rain = 0
KFAS 120915Z 24004KT 24/12 A3011 RMK A01 T02360117  RH  049%=      5-min Rain = 0
KFAS 120920Z 23003KT 23/12 A3011 RMK A01 T02330120  RH  051%=      5-min Rain = 0
KFAS 120925Z 23004KT 23/12 A301 RMK A01 T02310123  RH  053%=      5-min Rain = 0
KFAS 120930Z 22005KT 22/13 A3011 RMK A01 T02230131  RH  058%=      5-min Rain = 0
KFAS 120935Z 22006KT 21/13 A3011 RMK A01 T02110132  RH  063%=      5-min Rain = 0
KFAS 120940Z 21005KT 21/13 A301 RMK A01 T02090125  RH  061%=      5-min Rain = 0
KFAS 120945Z 22005KT 21/12 A301 RMK A01 T02070123  RH  061%=      5-min Rain = 0
KFAS 120950Z 22005KT 20/13 A301 RMK A01 T02040127  RH  064%=      5-min Rain = 0
KFAS 120955Z 22006KT 20/13 A301 RMK A01 T02020130  RH  066%=      5-min Rain = 0
KFAS 121000Z 21006KT 20/13 A301 RMK A01 T02020129  RH  065%=      5-min Rain = 0
KFAS 121005Z 21007KT 20/12 A301 RMK A01 T02030122  RH  062%=      5-min Rain = 0
KFAS 121010Z 21006KT 21/11 A301 RMK A01 T02080114  RH  057%=      5-min Rain = 0
KFAS 121015Z 21005KT 21/11 A301 RMK A01 T02110111  RH  055%=      5-min Rain = 0
KFAS 121020Z 21005KT 22/11 A301 RMK A01 T02160110  RH  053%=      5-min Rain = 0
KFAS 121025Z 20005KT 22/11 A301 RMK A01 T02180112  RH  053%=      5-min Rain = 0
KFAS 121030Z 19004KT 22/11 A301 RMK A01 T02180112  RH  053%=      5-min Rain = 0
KFAS 121035Z 20003KT 22/11 A301 RMK A01 T02200110  RH  051%=      5-min Rain = 0
KFAS 121040Z 21003KT 22/11 A301 RMK A01 T02180111  RH  052%=      5-min Rain = 0
KFAS 121045Z 23003KT 22/12 A301 RMK A01 T02150115  RH  055%=      5-min Rain = 0
KFAS 121050Z 24002KT 21/12 A301 RMK A01 T02140116  RH  056%=      5-min Rain = 0
KFAS 121055Z 25001KT 21/12 A301 RMK A01 T02130115  RH  056%=      5-min Rain = 0
KFAS 121100Z 07000KT 21/12 A301 RMK A01 T02070115  RH  058%=      5-min Rain = 0
KFAS 121105Z 27000KT 21/11 A301 RMK A01 T02110111  RH  055%=      5-min Rain = 0
KFAS 121110Z 27001KT 21/11 A3011 RMK A01 T02110110  RH  054%=      5-min Rain = 0
KFAS 121115Z 28000KT 21/11 A3011 RMK A01 T02070109  RH  055%=      5-min Rain = 0
KFAS 121120Z 31001KT 20/11 A3011 RMK A01 T02020113  RH  059%=      5-min Rain = 0
KFAS 121125Z 01004KT 20/11 A3011 RMK A01 T01960113  RH  061%=      5-min Rain = 0
KFAS 121130Z 03007KT 19/12 A3011 RMK A01 T01910117  RH  064%=      5-min Rain = 0
KFAS 121135Z 02006KT 20/12 A3011 RMK A01 T01950117  RH  063%=      5-min Rain = 0
KFAS 121140Z 01005KT 20/12 A3012 RMK A01 T01950122  RH  065%=      5-min Rain = 0
KFAS 121145Z 03005KT 20/12 A3012 RMK A01 T01960122  RH  065%=      5-min Rain = 0
KFAS 121150Z 02004KT 20/12 A3012 RMK A01 T02000120  RH  062%=      5-min Rain = 0
KFAS 121155Z 03004KT 20/12 A3012 RMK A01 T01990120  RH  063%=      5-min Rain = 0
KFAS 121200Z 04005KT 20/12 A3012 RMK A01 T01990120  RH  063%=      5-min Rain = 0
KFAS 121205Z 04006KT 20/12 A3012 RMK A01 T02000123  RH  064%=      5-min Rain = 0
KFAS 121210Z 04007KT 20/12 A3012 RMK A01 T02000124  RH  064%=      5-min Rain = 0
KFAS 121215Z 04007KT 20/13 A3013 RMK A01 T02020125  RH  063%=      5-min Rain = 0
KFAS 121220Z 04007KT 20/13 A3013 RMK A01 T02040126  RH  063%=      5-min Rain = 0
KFAS 121225Z 04008KT 21/13 A3013 RMK A01 T02080129  RH  063%=      5-min Rain = 0
KFAS 121230Z 05011KT 22/14 A3012 RMK A01 T02160137  RH  063%=      5-min Rain = 0
KFAS 121235Z 05011KT 22/14 A3012 RMK A01 T02210142  RH  064%=      5-min Rain = 0
KFAS 121240Z 05009KT 22/15 A3012 RMK A01 T02220147  RH  065%=      5-min Rain = 0
KFAS 121245Z 05010KT 22/15 A3012 RMK A01 T02230150  RH  066%=      5-min Rain = 0
KFAS 121250Z 05011KT 22/15 A3012 RMK A01 T02240152  RH  067%=      5-min Rain = 0
KFAS 121255Z 06010KT 22/15 A3013 RMK A01 T02240153  RH  067%=      5-min Rain = 0
KFAS 121300Z 07009KT 22/16 A3012 RMK A01 T02240155  RH  068%=      5-min Rain = 0
KFAS 121305Z 07009KT 22/16 A3013 RMK A01 T02230156  RH  069%=      5-min Rain = 0
KFAS 121310Z 07009KT 22/16 A3013 RMK A01 T02240157  RH  069%=      5-min Rain = 0
KFAS 121315Z 07009KT 23/16 A3013 RMK A01 T02270159  RH  069%=      5-min Rain = 0
KFAS 121320Z 07010KT 23/16 A3013 RMK A01 T02300159  RH  067%=      5-min Rain = 0
KFAS 121325Z 07009KT 23/16 A3013 RMK A01 T02320159  RH  067%=      5-min Rain = 0
KFAS 121330Z 06010KT 23/16 A3013 RMK A01 T02340159  RH  065%=      5-min Rain = 0
KFAS 121335Z 06009KT 24/16 A3013 RMK A01 T02370159  RH  065%=      5-min Rain = 0
KFAS 121340Z 07009KT 24/16 A3012 RMK A01 T02390161  RH  064%=      5-min Rain = 0
KFAS 121345Z 08009KT 24/16 A3012 RMK A01 T02400161  RH  064%=      5-min Rain = 0
KFAS 121350Z 08009KT 24/16 A3012 RMK A01 T02440160  RH  063%=      5-min Rain = 0
KFAS 121355Z 08009KT 25/16 A3012 RMK A01 T02470160  RH  061%=      5-min Rain = 0
KFAS 121400Z 09010KT 25/16 A3012 RMK A01 T02480159  RH  060%=      5-min Rain = 0
KFAS 121405Z 10008KT 25/16 A3013 RMK A01 T02510160  RH  060%=      5-min Rain = 0
KFAS 121410Z 10009KT 25/16 A3013 RMK A01 T02540161  RH  059%=      5-min Rain = 0
KFAS 121415Z 10010KT 26/16 A3013 RMK A01 T02580157  RH  056%=      5-min Rain = 0
KFAS 121420Z 09009KT 26/16 A3013 RMK A01 T02610160  RH  056%=      5-min Rain = 0
KFAS 121425Z 10010KT 26/16 A3013 RMK A01 T02640159  RH  055%=      5-min Rain = 0
KFAS 121430Z 10008KT 27/16 A3013 RMK A01 T02670161  RH  055%=      5-min Rain = 0
KFAS 121435Z 11008KT 27/16 A3013 RMK A01 T02690162  RH  054%=      5-min Rain = 0
KFAS 121440Z 11008KT 27/16 A3013 RMK A01 T02730162  RH  053%=      5-min Rain = 0
KFAS 121445Z 10009KT 28/16 A3013 RMK A01 T02760159  RH  051%=      5-min Rain = 0
KFAS 121450Z 10007KT 28/16 A3013 RMK A01 T02790159  RH  050%=      5-min Rain = 0
KFAS 121455Z 10008KT 28/16 A3013 RMK A01 T02810157  RH  049%=      5-min Rain = 0
KFAS 121500Z 10007KT 28/16 A3013 RMK A01 T02830155  RH  048%=      5-min Rain = 0
KFAS 121505Z 10006KT 29/15 A3013 RMK A01 T02900154  RH  046%=      5-min Rain = 0
KFAS 121510Z 09006KT 29/15 A3013 RMK A01 T02910150  RH  044%=      5-min Rain = 0
KFAS 121515Z 12006KT 29/14 A3013 RMK A01 T02940142  RH  041%=      5-min Rain = 0
KFAS 121520Z 13007KT 30/14 A3012 RMK A01 T02980139  RH  039%=      5-min Rain = 0
KFAS 121525Z 13009KT 30/14 A3012 RMK A01 T03020137  RH  038%=      5-min Rain = 0
KFAS 121530Z 15009KT 31/13 A3012 RMK A01 T03060131  RH  036%=      5-min Rain = 0
KFAS 121535Z 15012G18KT 31/12 A3012 RMK A01 T03100118  RH  032%=      5-min Rain = 0
KFAS 121540Z 16013G18KT 31/11 A3012 RMK A01 T03110114  RH  031%=      5-min Rain = 0
KFAS 121545Z 16012G18KT 31/11 A3011 RMK A01 T03140113  RH  030%=      5-min Rain = 0
KFAS 121550Z 16011G19KT 32/12 A3011 RMK A01 T03200116  RH  030%=      5-min Rain = 0
KFAS 121555Z 17015G20KT 32/11 A3011 RMK A01 T03200110  RH  028%=      5-min Rain = 0
KFAS 121600Z 17013G19KT 32/11 A3011 RMK A01 T03200110  RH  029%=      5-min Rain = 0
KFAS 121605Z 16013G20KT 32/11 A3011 RMK A01 T03220108  RH  028%=      5-min Rain = 0
KFAS 121610Z 17014KT 32/11 A3011 RMK A01 T03230111  RH  028%=      5-min Rain = 0
KFAS 121615Z 16016G21KT 33/11 A3011 RMK A01 T03270111  RH  028%=      5-min Rain = 0
KFAS 121620Z 18016G21KT 33/10 A301 RMK A01 T03280103  RH  026%=      5-min Rain = 0
KFAS 121625Z 17016KT 33/10 A301 RMK A01 T03270102  RH  026%=      5-min Rain = 0
KFAS 121630Z 16015G22KT 33/10 A301 RMK A01 T03290100  RH  025%=      5-min Rain = 0
KFAS 121635Z 16016G21KT 33/10 A301 RMK A01 T03330100  RH  025%=      5-min Rain = 0
KFAS 121640Z 16016KT 33/10 A301 RMK A01 T03340102  RH  025%=      5-min Rain = 0
KFAS 121645Z 17015G20KT 34/10 A301 RMK A01 T03360100  RH  024%=      5-min Rain = 0
KFAS 121650Z 16015G21KT 34/10 A301 RMK A01 T03370101  RH  024%=      5-min Rain = 0
KFAS 121655Z 16017G23KT 34/10 A301 RMK A01 T03390099  RH  024%=      5-min Rain = 0
KFAS 121700Z 17015G20KT 34/09 A3009 RMK A01 T03410094  RH  023%=      5-min Rain = 0
KFAS 121705Z 18015G21KT 34/10 A3009 RMK A01 T03430097  RH  023%=      5-min Rain = 0
KFAS 121710Z 16016G24KT 34/10 A3009 RMK A01 T03440097  RH  023%=      5-min Rain = 0
KFAS 121715Z 17016G22KT 34/10 A3009 RMK A01 T03370097  RH  024%=      5-min Rain = 0
KFAS 121720Z 17017G23KT 35/10 A3009 RMK A01 T03460097  RH  023%=      5-min Rain = 0
KFAS 121725Z 17016G23KT 35/10 A3008 RMK A01 T03480097  RH  022%=      5-min Rain = 0
KFAS 121730Z 17015G23KT 35/10 A3008 RMK A01 T03530095  RH  021%=      5-min Rain = 0
KFAS 121735Z 16015G20KT 35/09 A3008 RMK A01 T03520093  RH  021%=      5-min Rain = 0
KFAS 121740Z 17015G23KT 35/09 A3008 RMK A01 T03520091  RH  021%=      5-min Rain = 0
KFAS 121745Z 17016G23KT 36/09 A3008 RMK A01 T03570093  RH  021%=      5-min Rain = 0
KFAS 121750Z 18014G21KT 36/09 A3008 RMK A01 T03550091  RH  021%=      5-min Rain = 0
KFAS 121755Z 17017G22KT 36/09 A3008 RMK A01 T03590091  RH  020%=      5-min Rain = 0
KFAS 121800Z 18014G21KT 36/09 A3007 RMK A01 T03600090  RH  020%=      5-min Rain = 0
KFAS 121805Z 18014G27KT 36/09 A3007 RMK A01 T03610088  RH  020%=      5-min Rain = 0
KFAS 121810Z 19015G21KT 36/09 A3007 RMK A01 T03630086  RH  019%=      5-min Rain = 0
KFAS 121815Z 17015G21KT 36/09 A3007 RMK A01 T03640092  RH  020%=      5-min Rain = 0
KFAS 121820Z 18016G22KT 37/09 A3007 RMK A01 T03670086  RH  019%=      5-min Rain = 0
KFAS 121825Z 19016G22KT 37/08 A3007 RMK A01 T03670083  RH  018%=      5-min Rain = 0
KFAS 121830Z 19014G21KT 37/08 A3006 RMK A01 T03730081  RH  017%=      5-min Rain = 0
KFAS 121835Z 18014G23KT 37/08 A3006 RMK A01 T03720080  RH  017%=      5-min Rain = 0
KFAS 121840Z 18014G19KT 37/08 A3006 RMK A01 T03720080  RH  017%=      5-min Rain = 0
KFAS 121845Z 19014G19KT 38/08 A3005 RMK A01 T03750077  RH  017%=      5-min Rain = 0
KFAS 121850Z 19012G19KT 38/08 A3005 RMK A01 T03750076  RH  017%=      5-min Rain = 0
KFAS 121855Z 20014G21KT 38/08 A3005 RMK A01 T03780077  RH  016%=      5-min Rain = 0
KFAS 121900Z 20015G23KT 38/08 A3004 RMK A01 T03790080  RH  017%=      5-min Rain = 0
KFAS 121905Z 19014G23KT 38/08 A3004 RMK A01 T03820080  RH  016%=      5-min Rain = 0
KFAS 121910Z 19014G22KT 38/08 A3004 RMK A01 T03830078  RH  016%=      5-min Rain = 0
KFAS 121915Z 20015G20KT 39/08 A3003 RMK A01 T03860077  RH  016%=      5-min Rain = 0
KFAS 121920Z 19018G25KT 39/08 A3003 RMK A01 T03850077  RH  016%=      5-min Rain = 0
KFAS 121925Z 21015G22KT 38/07 A3003 RMK A01 T03840073  RH  015%=      5-min Rain = 0
KFAS 121930Z 20014G22KT 39/07 A3002 RMK A01 T03870073  RH  015%=      5-min Rain = 0
KFAS 121935Z 20014G21KT 39/07 A3002 RMK A01 T03860071  RH  015%=      5-min Rain = 0
KFAS 121940Z 21016G23KT 39/07 A3001 RMK A01 T03890071  RH  015%=      5-min Rain = 0
KFAS 121945Z 22017G25KT 39/07 A3001 RMK A01 T03900070  RH  015%=      5-min Rain = 0
KFAS 121950Z 19017G22KT 39/07 A3001 RMK A01 T03900070  RH  015%=      5-min Rain = 0
KFAS 121955Z 20018G25KT 39/07 A30 RMK A01 T03900070  RH  015%=      5-min Rain = 0
KFAS 122000Z 20014G23KT 39/07 A30 RMK A01 T03930072  RH  015%=      5-min Rain = 0
KFAS 122005Z 19016G21KT 40/07 A30 RMK A01 T03960070  RH  014%=      5-min Rain = 0
KFAS 122010Z 21014G21KT 39/07 A2999 RMK A01 T03940069  RH  014%=      5-min Rain = 0
KFAS 122015Z 19018KT 40/07 A2999 RMK A01 T03980069  RH  014%=      5-min Rain = 0
KFAS 122020Z 20013G19KT 40/07 A2999 RMK A01 T04010069  RH  014%=      5-min Rain = 0
KFAS 122025Z 18017G25KT 40/07 A2998 RMK A01 T04020068  RH  014%=      5-min Rain = 0
KFAS 122030Z 20020G27KT 40/06 A2998 RMK A01 T04020064  RH  013%=      5-min Rain = 0
KFAS 122035Z 21014G22KT 40/06 A2998 RMK A01 T04010064  RH  013%=      5-min Rain = 0
KFAS 122040Z 20021G28KT 40/06 A2997 RMK A01 T04020055  RH  012%=      5-min Rain = 0
KFAS 122045Z 20018G28KT 40/06 A2997 RMK A01 T04020060  RH  013%=      5-min Rain = 0
KFAS 122050Z 18019G27KT 40/06 A2997 RMK A01 T04030063  RH  013%=      5-min Rain = 0
KFAS 122055Z 18012G20KT 40/06 A2997 RMK A01 T04020060  RH  013%=      5-min Rain = 0
KFAS 122100Z 21014G23KT 41/05 A2996 RMK A01 T04050050  RH  012%=      5-min Rain = 0
KFAS 122105Z 23017G24KT 41/04 A2996 RMK A01 T04070043  RH  011%=      5-min Rain = 0
KFAS 122110Z 22016G24KT 41/05 A2996 RMK A01 T04120052  RH  012%=      5-min Rain = 0
KFAS 122115Z 21017G28KT 42/05 A2995 RMK A01 T04180052  RH  011%=      5-min Rain = 0
KFAS 122120Z 23016G21KT 41/04 A2996 RMK A01 T04050041  RH  011%=      5-min Rain = 0
KFAS 122125Z 22015G21KT 40/04 A2995 RMK A01 T04020039  RH  011%=      5-min Rain = 0
KFAS 122130Z 21015G23KT 41/04 A2995 RMK A01 T04090040  RH  011%=      5-min Rain = 0
KFAS 122135Z 23015G20KT 41/04 A2995 RMK A01 T04120043  RH  011%=      5-min Rain = 0
KFAS 122140Z 23011G17KT 41/05 A2995 RMK A01 T04060045  RH  011%=      5-min Rain = 0
KFAS 122145Z 22014G19KT 41/05 A2994 RMK A01 T04120045  RH  011%=      5-min Rain = 0
KFAS 122150Z 21014G21KT 41/05 A2994 RMK A01 T04060045  RH  011%=      5-min Rain = 0
KFAS 122155Z 23013G19KT 41/05 A2994 RMK A01 T04050045  RH  011%=      5-min Rain = 0
KFAS 122200Z 25015G22KT 41/05 A2994 RMK A01 T04120048  RH  011%=      5-min Rain = 0
KFAS 122205Z 24013G20KT 41/05 A2994 RMK A01 T04080045  RH  011%=      5-min Rain = 0
KFAS 122210Z 25011G17KT 41/04 A2994 RMK A01 T04050042  RH  011%=      5-min Rain = 0
KFAS 122215Z 24015G23KT 41/04 A2994 RMK A01 T04050040  RH  011%=      5-min Rain = 0
KFAS 122220Z 25016G22KT 41/04 A2994 RMK A01 T04130038  RH  010%=      5-min Rain = 0
KFAS 122225Z 26014G19KT 41/04 A2994 RMK A01 T04110039  RH  010%=      5-min Rain = 0
KFAS 122230Z 26010G16KT 41/04 A2994 RMK A01 T04140043  RH  011%=      5-min Rain = 0
KFAS 122235Z 25015G20KT 41/04 A2994 RMK A01 T04140044  RH  011%=      5-min Rain = 0
KFAS 122240Z 24011KT 41/04 A2994 RMK A01 T04120042  RH  011%=      5-min Rain = 0
KFAS 122245Z 25011G21KT 42/04 A2994 RMK A01 T04170044  RH  011%=      5-min Rain = 0
KFAS 122250Z 26013G22KT 41/04 A2994 RMK A01 T04140043  RH  011%=      5-min Rain = 0
KFAS 122255Z 26011G17KT 41/04 A2994 RMK A01 T04130041  RH  011%=      5-min Rain = 0
KFAS 122300Z 26011G17KT 41/04 A2993 RMK A01 T04070042  RH  011%=      5-min Rain = 0
KFAS 122305Z 27011KT 41/04 A2993 RMK A01 T04080041  RH  011%=      5-min Rain = 0
KFAS 122310Z 26009G14KT 40/04 A2993 RMK A01 T04030038  RH  011%=      5-min Rain = 0
KFAS 122315Z 24010G15KT 41/04 A2993 RMK A01 T04080039  RH  011%=      5-min Rain = 0
KFAS 122320Z 24012KT 41/05 A2993 RMK A01 T04090046  RH  011%=      5-min Rain = 0
KFAS 122325Z 26007KT 40/05 A2993 RMK A01 T04030047  RH  012%=      5-min Rain = 0
KFAS 122330Z 25009G15KT 40/04 A2992 RMK A01 T04030044  RH  011%=      5-min Rain = 0
KFAS 122335Z 23012G17KT 41/05 A2992 RMK A01 T04050045  RH  011%=      5-min Rain = 0
KFAS 122340Z 24009G15KT 40/04 A2992 RMK A01 T04020043  RH  011%=      5-min Rain = 0
KFAS 122345Z 24009G14KT 40/04 A2992 RMK A01 T04030043  RH  011%=      5-min Rain = 0
KFAS 122350Z 24008G15KT 40/04 A2991 RMK A01 T04010041  RH  011%=      5-min Rain = 0
KFAS 122355Z 24012KT 40/05 A2991 RMK A01 T04020047  RH  012%=      5-min Rain = 0
KFAS 130000Z 27010KT 40/05 A2991 RMK A01 T03970046  RH  012%=      5-min Rain = 0
KFAS 130005Z 28010KT 40/04 A2991 RMK A01 T03980042  RH  012%=      5-min Rain = 0
KFAS 130010Z 26011G18KT 40/05 A2992 RMK A01 T03970046  RH  012%=      5-min Rain = 0
KFAS 130015Z 26008G13KT 39/04 A2992 RMK A01 T03920041  RH  012%=      5-min Rain = 0
KFAS 130020Z 28007KT 39/04 A2992 RMK A01 T03870042  RH  012%=      5-min Rain = 0
KFAS 130025Z 27009KT 39/04 A2992 RMK A01 T03870039  RH  012%=      5-min Rain = 0
KFAS 130030Z 24006G11KT 38/05 A2992 RMK A01 T03830048  RH  013%=      5-min Rain = 0
KFAS 130035Z 26010KT 38/05 A2992 RMK A01 T03790045  RH  013%=      5-min Rain = 0
KFAS 130040Z 27009KT 38/04 A2993 RMK A01 T03800043  RH  013%=      5-min Rain = 0
KFAS 130045Z 27007KT 38/05 A2993 RMK A01 T03780045  RH  013%=      5-min Rain = 0
KFAS 130050Z 27008KT 37/05 A2993 RMK A01 T03730046  RH  014%=      5-min Rain = 0
KFAS 130055Z 27008KT 37/04 A2993 RMK A01 T03720037  RH  013%=      5-min Rain = 0
KFAS 130100Z 27007KT 37/04 A2993 RMK A01 T03700036  RH  013%=      5-min Rain = 0
KFAS 130105Z 27007KT 37/04 A2993 RMK A01 T03670037  RH  013%=      5-min Rain = 0
KFAS 130110Z 27006KT 36/04 A2993 RMK A01 T03630039  RH  014%=      5-min Rain = 0
KFAS 130115Z 26005KT 36/06 A2993 RMK A01 T03550056  RH  016%=      5-min Rain = 0
KFAS 130120Z 25007KT 34/07 A2993 RMK A01 T03430067  RH  019%=      5-min Rain = 0
KFAS 130125Z 25007KT 34/07 A2993 RMK A01 T03380068  RH  019%=      5-min Rain = 0
KFAS 130130Z 25006KT 34/07 A2993 RMK A01 T03360068  RH  019%=      5-min Rain = 0
KFAS 130135Z 25006KT 33/07 A2993 RMK A01 T03330072  RH  020%=      5-min Rain = 0
KFAS 130140Z 25009G15KT 33/08 A2994 RMK A01 T03280077  RH  022%=      5-min Rain = 0
KFAS 130145Z 26019G26KT 33/07 A2995 RMK A01 T03330069  RH  020%=      5-min Rain = 0
KFAS 130150Z 27023G31KT 34/08 A2995 RMK A01 T03370078  RH  021%=      5-min Rain = 0
KFAS 130155Z 27021G31KT 34/08 A2995 RMK A01 T03350079  RH  021%=      5-min Rain = 0
KFAS 130200Z 27022G30KT 33/08 A2995 RMK A01 T03330080  RH  021%=      5-min Rain = 0
KFAS 130205Z 26024G32KT 33/08 A2996 RMK A01 T03300083  RH  022%=      5-min Rain = 0
KFAS 130210Z 23018G28KT 33/09 A2997 RMK A01 T03260089  RH  024%=      5-min Rain = 0
KFAS 130215Z 25013KT 32/10 A2997 RMK A01 T03150098  RH  027%=      5-min Rain = 0
KFAS 130220Z 24010KT 31/10 A2997 RMK A01 T03100099  RH  028%=      5-min Rain = 0
KFAS 130225Z 22012G21KT 31/10 A2997 RMK A01 T03100095  RH  027%=      5-min Rain = 0
KFAS 130230Z 22014G21KT 31/09 A2997 RMK A01 T03130093  RH  026%=      5-min Rain = 0
KFAS 130235Z 23020G27KT 32/09 A2996 RMK A01 T03180088  RH  025%=      5-min Rain = 0
KFAS 130240Z 22021G27KT 32/10 A2997 RMK A01 T03180095  RH  026%=      5-min Rain = 0
KFAS 130245Z 21019KT 31/10 A2997 RMK A01 T03100097  RH  028%=      5-min Rain = 0
KFAS 130250Z 21020G27KT 32/08 A2997 RMK A01 T03150080  RH  024%=      5-min Rain = 0
KFAS 130255Z 22015G25KT 33/08 A2997 RMK A01 T03270075  RH  022%=      5-min Rain = 0
KFAS 130300Z 21016G21KT 33/08 A2996 RMK A01 T03250080  RH  023%=      5-min Rain = 0
KFAS 130305Z 21012KT 31/09 A2997 RMK A01 T03120092  RH  026%=      5-min Rain = 0
KFAS 130310Z 22011KT 31/09 A2997 RMK A01 T03080087  RH  026%=      5-min Rain = 0
KFAS 130315Z 24009KT 31/08 A2997 RMK A01 T03110081  RH  025%=      5-min Rain = 0
KFAS 130320Z 24007KT 31/08 A2997 RMK A01 T03090082  RH  025%=      5-min Rain = 0
KFAS 130325Z 24007KT 31/08 A2997 RMK A01 T03060080  RH  025%=      5-min Rain = 0
KFAS 130330Z 22006KT 31/08 A2998 RMK A01 T03090077  RH  024%=      5-min Rain = 0
KFAS 130335Z 21007KT 30/08 A2998 RMK A01 T03030075  RH  025%=      5-min Rain = 0
KFAS 130340Z 23008KT 30/08 A2999 RMK A01 T03040076  RH  025%=      5-min Rain = 0
KFAS 130345Z 25010KT 31/08 A2999 RMK A01 T03050077  RH  025%=      5-min Rain = 0
KFAS 130350Z 25009KT 31/07 A2999 RMK A01 T03080074  RH  024%=      5-min Rain = 0
KFAS 130355Z 25008KT 31/08 A2998 RMK A01 T03070075  RH  024%=      5-min Rain = 0
KFAS 130400Z 25009KT 30/08 A2999 RMK A01 T03020080  RH  026%=      5-min Rain = 0
KFAS 130405Z 25009KT 30/08 A2999 RMK A01 T02990081  RH  026%=      5-min Rain = 0
KFAS 130410Z 24007KT 30/08 A2999 RMK A01 T02990080  RH  026%=      5-min Rain = 0
KFAS 130415Z 24008KT 30/08 A2999 RMK A01 T02990079  RH  026%=      5-min Rain = 0
KFAS 130420Z 24008KT 30/08 A2999 RMK A01 T02980079  RH  026%=      5-min Rain = 0
KFAS 130425Z 25007KT 29/08 A2999 RMK A01 T02940080  RH  027%=      5-min Rain = 0
KFAS 130430Z 24008KT 29/08 A2999 RMK A01 T02920079  RH  027%=      5-min Rain = 0
KFAS 130435Z 23008KT 30/08 A2999 RMK A01 T02950076  RH  026%=      5-min Rain = 0
KFAS 130440Z 24006KT 30/08 A2999 RMK A01 T02970076  RH  026%=      5-min Rain = 0
KFAS 130445Z 26007KT 29/08 A30 RMK A01 T02930078  RH  027%=      5-min Rain = 0
KFAS 130450Z 24008KT 29/08 A30 RMK A01 T02920082  RH  028%=      5-min Rain = 0
KFAS 130455Z 24007KT 29/08 A2999 RMK A01 T02920080  RH  027%=      5-min Rain = 0

Page generated in 0.0095 seconds.